Time;durP1;ratioP1;P1;durP2;ratioP2;P2;SDS_P1;SDS_P2;PMS_P1;PMS_P2;Temp;Humidity;BMP_temperature;BMP_pressure;BME280_temperature;BME280_humidity;BME280_pressure;Samples;Min_cycle;Max_cycle;Signal;HPM_P1;HPM_P2
2021/05/21 00:01:01;;;;;;;2.33;1.80;;;17.40;92.20;;;;;;5145644;27;20578;-40
2021/05/21 00:03:32;;;;;;;2.73;2.53;;;17.50;92.90;;;;;;5144872;27;20450;-40
2021/05/21 00:06:04;;;;;;;3.83;2.50;;;17.50;95.20;;;;;;5133112;27;20502;-40
2021/05/21 00:08:34;;;;;;;3.90;2.73;;;17.30;95.80;;;;;;5144046;27;20444;-39
2021/05/21 00:11:05;;;;;;;3.20;2.73;;;17.00;99.00;;;;;;5144474;27;20471;-40
2021/05/21 00:13:35;;;;;;;5.60;2.90;;;16.60;99.90;;;;;;5143574;27;20452;-39
2021/05/21 00:16:06;;;;;;;5.80;3.10;;;16.60;99.90;;;;;;5144546;27;20476;-40
2021/05/21 00:18:37;;;;;;;4.60;3.30;;;16.50;99.90;;;;;;5138506;27;20830;-40
2021/05/21 00:21:09;;;;;;;3.70;3.33;;;16.70;99.90;;;;;;5136860;27;20794;-38
2021/05/21 00:23:40;;;;;;;2.93;2.43;;;16.80;99.90;;;;;;5144962;27;20459;-40
2021/05/21 00:26:10;;;;;;;3.07;1.90;;;16.80;99.90;;;;;;5143380;27;21890;-41
2021/05/21 00:28:40;;;;;;;4.30;2.50;;;16.60;95.90;;;;;;5142825;27;20497;-40
2021/05/21 00:31:11;;;;;;;2.67;2.27;;;16.50;96.90;;;;;;5144347;27;20449;-39
2021/05/21 00:33:41;;;;;;;2.70;2.30;;;16.40;97.00;;;;;;5144738;27;20760;-42
2021/05/21 00:36:14;;;;;;;4.07;2.80;;;16.50;98.60;;;;;;5140085;27;20493;-42
2021/05/21 00:38:44;;;;;;;5.00;2.70;;;16.70;98.30;;;;;;5143024;27;20453;-40
2021/05/21 00:41:15;;;;;;;4.00;2.90;;;16.80;97.70;;;;;;5144796;27;20481;-38
2021/05/21 00:43:45;;;;;;;4.33;2.57;;;16.70;96.90;;;;;;5143289;27;20456;-39
2021/05/21 00:46:16;;;;;;;3.23;2.33;;;16.80;98.10;;;;;;5145816;27;20530;-41
2021/05/21 00:48:47;;;;;;;2.87;2.37;;;16.80;97.00;;;;;;5129667;27;20477;-39
2021/05/21 00:51:18;;;;;;;3.13;2.83;;;16.80;97.40;;;;;;5145055;27;20466;-40
2021/05/21 00:53:51;;;;;;;3.60;2.30;;;16.90;96.60;;;;;;5144142;27;20484;-39
2021/05/21 00:56:22;;;;;;;3.87;2.23;;;16.90;95.80;;;;;;5144700;27;20449;-39
2021/05/21 00:58:53;;;;;;;3.10;1.80;;;16.90;94.30;;;;;;5143045;27;20445;-40
2021/05/21 01:01:23;;;;;;;2.10;1.90;;;16.80;95.00;;;;;;5144343;27;20521;-40
2021/05/21 01:03:53;;;;;;;2.23;1.97;;;16.80;94.30;;;;;;5144776;27;20490;-40
2021/05/21 01:06:25;;;;;;;2.00;1.90;;;16.80;91.80;;;;;;5142903;27;20510;-40
2021/05/21 01:08:56;;;;;;;2.00;1.80;;;16.80;91.60;;;;;;5127565;27;20445;-39
2021/05/21 01:11:27;;;;;;;4.20;2.00;;;16.80;92.20;;;;;;5144019;27;20452;-40
2021/05/21 01:13:58;;;;;;;2.63;2.10;;;16.70;91.30;;;;;;5142536;27;20453;-40
2021/05/21 01:16:28;;;;;;;4.93;2.10;;;16.70;91.50;;;;;;5140038;27;20438;-41
2021/05/21 01:19:04;;;;;;;2.03;1.83;;;16.60;93.00;;;;;;5144385;27;20471;-39
2021/05/21 01:21:36;;;;;;;4.87;2.00;;;16.60;92.00;;;;;;5134747;27;20547;-41
2021/05/21 01:24:08;;;;;;;2.60;2.40;;;16.70;92.60;;;;;;5144104;27;20856;-41
2021/05/21 01:26:39;;;;;;;3.93;2.30;;;16.60;92.40;;;;;;5138009;27;20450;-38
2021/05/21 01:29:09;;;;;;;2.17;1.97;;;16.60;92.60;;;;;;5142817;27;20505;-40
2021/05/21 01:31:44;;;;;;;2.57;2.37;;;16.50;92.40;;;;;;5143680;27;20421;-40
2021/05/21 01:34:15;;;;;;;2.07;1.87;;;16.60;92.50;;;;;;5144007;27;20465;-40
2021/05/21 01:36:48;;;;;;;2.47;2.27;;;16.50;92.30;;;;;;5142173;27;20478;-38
2021/05/21 01:39:18;;;;;;;3.20;1.90;;;16.50;91.60;;;;;;5127544;28;20445;-39
2021/05/21 01:41:49;;;;;;;2.17;1.90;;;16.50;92.00;;;;;;5142402;27;20909;-40
2021/05/21 01:44:20;;;;;;;2.90;2.23;;;16.50;91.40;;;;;;5142506;27;20800;-40
2021/05/21 01:46:50;;;;;;;2.27;1.97;;;16.50;92.50;;;;;;5142554;28;20449;-39
2021/05/21 01:49:22;;;;;;;2.50;2.00;;;16.50;91.50;;;;;;5135732;28;20437;-40
2021/05/21 01:51:57;;;;;;;4.03;2.40;;;16.60;91.50;;;;;;5142540;28;20517;-41
2021/05/21 01:54:28;;;;;;;2.90;2.70;;;16.70;90.80;;;;;;5143154;28;20444;-41
2021/05/21 01:56:59;;;;;;;3.43;2.67;;;16.60;90.40;;;;;;5142579;28;20449;-40
2021/05/21 01:59:30;;;;;;;4.27;3.80;;;16.60;90.20;;;;;;5142396;28;20445;-41
2021/05/21 02:02:00;;;;;;;3.30;3.00;;;16.50;92.60;;;;;;5143531;28;20507;-40
2021/05/21 02:04:32;;;;;;;3.47;3.00;;;16.20;96.20;;;;;;5142665;28;20486;-41
2021/05/21 02:07:04;;;;;;;2.97;2.77;;;15.90;96.20;;;;;;5142761;28;20473;-40
2021/05/21 02:09:45;;;;;;;3.80;3.50;;;15.80;99.10;;;;;;5130563;28;20448;-41
2021/05/21 02:12:15;;;;;;;4.07;3.70;;;15.70;99.90;;;;;;5143558;28;20452;-40
2021/05/21 02:14:46;;;;;;;3.10;2.90;;;15.50;99.90;;;;;;5141528;28;20445;-42
2021/05/21 02:17:16;;;;;;;3.43;3.13;;;15.50;97.00;;;;;;5143474;27;20476;-39
2021/05/21 02:19:47;;;;;;;4.07;2.87;;;15.60;96.20;;;;;;5147349;27;20449;-40
2021/05/21 02:22:20;;;;;;;3.60;2.37;;;15.60;94.90;;;;;;5142804;27;20501;-40
2021/05/21 02:24:54;;;;;;;2.90;2.30;;;15.60;93.90;;;;;;5146308;27;20450;-37
2021/05/21 02:27:25;;;;;;;4.40;3.37;;;15.60;92.50;;;;;;5147967;27;20961;-41
2021/05/21 02:29:55;;;;;;;3.40;2.20;;;15.50;91.80;;;;;;5145525;27;20881;-40
2021/05/21 02:32:26;;;;;;;4.80;2.63;;;15.50;91.50;;;;;;5147339;27;20458;-39
2021/05/21 02:34:57;;;;;;;3.10;2.50;;;15.50;91.00;;;;;;5147573;27;20500;-41
2021/05/21 02:37:29;;;;;;;2.50;2.30;;;15.40;91.50;;;;;;5146114;27;20460;-40
2021/05/21 02:39:59;;;;;;;3.37;2.30;;;15.40;91.00;;;;;;5127761;27;20508;-39
2021/05/21 02:42:29;;;;;;;6.30;3.23;;;15.30;91.20;;;;;;5130981;27;20483;-40
2021/05/21 02:45:00;;;;;;;3.57;2.27;;;15.30;91.30;;;;;;5141280;27;20447;-39
2021/05/21 02:47:33;;;;;;;6.97;2.73;;;15.30;91.60;;;;;;5146893;27;20819;-40
2021/05/21 02:50:05;;;;;;;3.80;2.80;;;15.40;91.10;;;;;;5146445;27;20423;-40
2021/05/21 02:52:37;;;;;;;3.50;2.27;;;15.20;91.10;;;;;;5146957;27;20912;-39
2021/05/21 02:55:09;;;;;;;4.63;2.60;;;15.20;91.30;;;;;;5144985;27;20461;-37
2021/05/21 02:57:40;;;;;;;4.13;2.20;;;15.10;91.90;;;;;;5146198;27;20437;-37
2021/05/21 03:00:11;;;;;;;3.93;2.70;;;15.00;91.80;;;;;;5145076;27;20509;-38
2021/05/21 03:02:42;;;;;;;4.40;2.27;;;15.00;92.00;;;;;;5146497;27;20460;-39
2021/05/21 03:05:17;;;;;;;4.07;3.37;;;14.80;92.70;;;;;;5145513;27;20466;-40
2021/05/21 03:07:52;;;;;;;6.67;2.90;;;14.70;93.30;;;;;;5146320;27;20560;-40
2021/05/21 03:10:23;;;;;;;4.87;3.37;;;14.70;94.20;;;;;;5145703;27;20448;-39
2021/05/21 03:12:54;;;;;;;4.10;3.43;;;14.60;94.90;;;;;;5146583;27;20445;-40
2021/05/21 03:15:26;;;;;;;5.13;3.67;;;14.50;95.00;;;;;;5144027;27;20540;-39
2021/05/21 03:17:57;;;;;;;4.33;3.17;;;14.50;95.50;;;;;;5145511;27;20445;-39
2021/05/21 03:20:27;;;;;;;7.30;3.50;;;14.50;95.30;;;;;;5144961;27;20810;-40
2021/05/21 03:23:01;;;;;;;2.87;2.57;;;14.40;94.90;;;;;;5145361;27;20841;-39
2021/05/21 03:25:32;;;;;;;4.03;2.73;;;14.40;94.50;;;;;;5142612;27;20468;-39
2021/05/21 03:28:02;;;;;;;4.97;3.37;;;14.20;94.20;;;;;;5146066;27;20453;-39
2021/05/21 03:30:33;;;;;;;4.47;3.17;;;14.30;94.70;;;;;;5141935;27;20445;-40
2021/05/21 03:33:03;;;;;;;3.60;2.90;;;14.10;94.90;;;;;;5145469;27;20862;-39
2021/05/21 03:35:35;;;;;;;7.30;2.80;;;14.20;94.70;;;;;;5144856;27;20451;-40
2021/05/21 03:38:07;;;;;;;3.10;2.40;;;14.20;94.60;;;;;;5145422;27;20478;-39
2021/05/21 03:40:39;;;;;;;7.47;3.40;;;14.30;94.20;;;;;;5145980;27;20542;-38
2021/05/21 03:43:11;;;;;;;4.57;3.20;;;14.20;94.80;;;;;;5143733;27;20457;-39
2021/05/21 03:45:41;;;;;;;3.50;2.97;;;14.20;94.60;;;;;;5143205;27;20963;-39
2021/05/21 03:48:12;;;;;;;6.60;2.80;;;14.20;94.70;;;;;;5136097;27;20525;-39
2021/05/21 03:50:43;;;;;;;5.17;2.63;;;14.20;95.50;;;;;;5144488;27;20521;-38
2021/05/21 03:53:15;;;;;;;3.60;2.60;;;14.10;94.30;;;;;;5131056;27;20461;-40
2021/05/21 03:55:46;;;;;;;5.27;3.03;;;14.10;94.40;;;;;;5135409;27;20476;-40
2021/05/21 03:58:16;;;;;;;5.30;3.57;;;14.10;94.60;;;;;;5141374;27;20457;-36
2021/05/21 04:00:47;;;;;;;4.80;2.90;;;13.90;94.60;;;;;;5135488;27;20481;-40
2021/05/21 04:03:18;;;;;;;3.90;3.50;;;13.90;94.80;;;;;;5136746;27;20448;-39
2021/05/21 04:05:48;;;;;;;3.20;2.90;;;13.80;95.40;;;;;;5138083;27;20449;-40
2021/05/21 04:08:20;;;;;;;5.20;3.27;;;13.70;95.00;;;;;;5136147;27;20452;-40
2021/05/21 04:10:50;;;;;;;6.77;3.07;;;13.80;95.10;;;;;;5135218;27;20474;-39
2021/05/21 04:13:21;;;;;;;4.43;2.90;;;13.70;95.90;;;;;;5137741;27;20452;-39
2021/05/21 04:15:51;;;;;;;4.20;3.40;;;13.70;96.00;;;;;;5139033;27;20445;-40
2021/05/21 04:18:24;;;;;;;4.77;3.40;;;13.70;95.90;;;;;;5135612;27;20465;-40
2021/05/21 04:20:55;;;;;;;5.67;3.20;;;13.60;95.40;;;;;;5134228;27;20567;-40
2021/05/21 04:23:26;;;;;;;8.07;3.43;;;13.60;94.90;;;;;;5139390;27;20475;-39
2021/05/21 04:25:57;;;;;;;4.03;3.17;;;13.50;94.70;;;;;;5135849;27;20456;-38
2021/05/21 04:28:27;;;;;;;4.23;2.97;;;13.40;95.00;;;;;;5133104;27;20445;-39
2021/05/21 04:30:58;;;;;;;4.53;3.20;;;13.40;94.90;;;;;;5130908;27;20453;-39
2021/05/21 04:33:28;;;;;;;3.57;3.23;;;13.30;95.20;;;;;;5130653;27;20941;-39
2021/05/21 04:35:59;;;;;;;7.13;3.37;;;13.20;94.90;;;;;;5141691;27;20592;-40
2021/05/21 04:38:31;;;;;;;5.37;3.20;;;13.30;95.40;;;;;;5133163;27;20483;-40
2021/05/21 04:41:02;;;;;;;2.80;2.50;;;13.30;94.90;;;;;;5133515;27;20477;-39
2021/05/21 04:43:35;;;;;;;3.00;2.80;;;13.20;94.20;;;;;;5142972;27;20497;-40
2021/05/21 04:46:06;;;;;;;5.97;3.60;;;13.20;94.50;;;;;;5135686;27;20449;-40
2021/05/21 04:48:37;;;;;;;4.17;2.70;;;13.20;94.50;;;;;;5133138;27;20481;-37
2021/05/21 04:51:08;;;;;;;4.23;2.40;;;13.10;94.50;;;;;;5134238;27;20932;-39
2021/05/21 04:53:41;;;;;;;6.20;3.03;;;13.00;94.30;;;;;;5135175;27;20491;-39
2021/05/21 04:56:11;;;;;;;5.40;3.00;;;13.00;94.60;;;;;;5134052;27;20471;-40
2021/05/21 04:58:42;;;;;;;4.13;3.73;;;13.00;94.90;;;;;;5138178;27;20501;-40
2021/05/21 05:01:12;;;;;;;4.47;3.00;;;13.00;95.20;;;;;;5141003;27;20492;-39
2021/05/21 05:03:43;;;;;;;4.10;3.43;;;12.90;94.90;;;;;;5139313;27;20502;-40
2021/05/21 05:06:13;;;;;;;6.40;3.23;;;12.90;94.20;;;;;;5135827;27;20444;-41
2021/05/21 05:08:45;;;;;;;5.23;3.27;;;12.80;94.10;;;;;;5133227;27;20453;-41
2021/05/21 05:11:15;;;;;;;4.93;3.10;;;12.70;94.70;;;;;;5132564;27;20441;-40
2021/05/21 05:13:46;;;;;;;4.10;3.20;;;12.50;94.70;;;;;;5136024;27;20474;-40
2021/05/21 05:16:16;;;;;;;4.83;3.63;;;12.40;95.40;;;;;;5134598;27;20467;-40
2021/05/21 05:18:48;;;;;;;7.90;2.87;;;12.30;95.50;;;;;;5132704;27;20445;-40
2021/05/21 05:21:20;;;;;;;7.17;3.70;;;12.20;95.70;;;;;;5131592;27;20472;-38
2021/05/21 05:23:52;;;;;;;4.13;3.37;;;12.10;96.20;;;;;;5135247;27;20877;-40
2021/05/21 05:26:22;;;;;;;5.97;3.43;;;12.10;96.70;;;;;;5131723;27;20458;-39
2021/05/21 05:28:53;;;;;;;3.77;2.80;;;12.00;97.50;;;;;;5130721;27;20454;-41
2021/05/21 05:31:23;;;;;;;4.63;2.90;;;12.00;97.50;;;;;;5143413;27;20467;-40
2021/05/21 05:33:54;;;;;;;3.35;3.05;;;12.00;97.50;;;;;;5143163;27;20497;-39
2021/05/21 05:36:24;;;;;;;5.43;3.50;;;12.10;97.30;;;;;;5142600;27;20225;-40
2021/05/21 05:38:56;;;;;;;8.83;3.43;;;12.00;97.40;;;;;;5142219;27;20516;-39
2021/05/21 05:41:26;;;;;;;3.70;3.40;;;12.00;97.50;;;;;;5142817;28;20468;-39
2021/05/21 05:43:57;;;;;;;4.80;3.17;;;11.90;98.10;;;;;;5142697;27;20505;-39
2021/05/21 05:46:27;;;;;;;5.73;3.53;;;11.80;98.20;;;;;;5143658;28;20196;-39
2021/05/21 05:48:58;;;;;;;6.43;3.47;;;11.90;97.70;;;;;;5141987;28;20480;-40
2021/05/21 05:51:28;;;;;;;5.67;3.43;;;11.70;98.70;;;;;;5143657;27;20449;-37
2021/05/21 05:54:00;;;;;;;10.23;3.30;;;11.60;98.70;;;;;;5146742;27;20452;-39
2021/05/21 05:56:31;;;;;;;7.72;4.55;;;11.50;99.90;;;;;;5146973;27;20192;-38
2021/05/21 05:59:01;;;;;;;4.00;3.30;;;11.40;99.90;;;;;;5146577;27;20208;-39
2021/05/21 06:01:32;;;;;;;4.63;3.30;;;11.40;99.90;;;;;;5147514;27;20483;-39
2021/05/21 06:04:02;;;;;;;6.53;3.10;;;11.30;99.90;;;;;;5147049;27;20460;-39
2021/05/21 06:06:32;;;;;;;4.03;3.73;;;11.20;99.90;;;;;;5146963;27;20517;-39
2021/05/21 06:09:06;;;;;;;4.28;3.70;;;11.20;99.90;;;;;;5139117;27;20479;-38
2021/05/21 06:11:40;;;;;;;7.03;3.75;;;11.10;99.90;;;;;;5147651;27;20191;-37
2021/05/21 06:14:10;;;;;;;4.35;3.60;;;11.20;99.90;;;;;;5145242;27;20187;-39
2021/05/21 06:16:43;;;;;;;5.57;3.60;;;11.10;99.90;;;;;;5147663;27;20219;-40
2021/05/21 06:19:14;;;;;;;5.13;3.40;;;11.00;99.90;;;;;;5146412;27;20199;-40
2021/05/21 06:21:44;;;;;;;4.50;3.88;;;11.00;99.90;;;;;;5147313;27;20222;-40
2021/05/21 06:24:17;;;;;;;3.92;3.47;;;10.90;99.90;;;;;;5129706;27;20274;-39
2021/05/21 06:27:15;;;;;;;3.53;3.22;;;10.80;99.90;;;;;;5146818;27;20191;-39
2021/05/21 06:29:46;;;;;;;6.15;3.95;;;10.70;99.90;;;;;;5145752;27;20183;-40
2021/05/21 06:32:16;;;;;;;10.25;4.10;;;10.60;99.90;;;;;;5147200;27;20229;-39
2021/05/21 06:34:47;;;;;;;6.00;4.43;;;10.70;99.90;;;;;;5145975;27;20207;-40
2021/05/21 06:37:27;;;;;;;3.53;3.22;;;10.60;99.90;;;;;;5144800;27;20199;-37
2021/05/21 06:40:16;;;;;;;6.50;4.20;;;10.60;99.90;;;;;;5145899;27;20211;-38
2021/05/21 06:42:47;;;;;;;8.85;4.57;;;10.50;99.90;;;;;;5146618;27;20222;-39
2021/05/21 06:45:18;;;;;;;4.32;3.92;;;10.40;99.90;;;;;;5129291;27;20194;-39
2021/05/21 06:47:49;;;;;;;6.68;5.05;;;10.40;99.90;;;;;;5146393;27;20223;-39
2021/05/21 06:50:19;;;;;;;4.07;3.67;;;10.30;99.90;;;;;;5145414;27;20293;-38
2021/05/21 06:52:50;;;;;;;8.40;5.47;;;10.20;99.90;;;;;;5146802;27;20218;-39
2021/05/21 06:55:21;;;;;;;5.43;4.25;;;10.20;99.90;;;;;;5139029;27;20199;-38
2021/05/21 06:57:52;;;;;;;7.53;4.68;;;10.20;99.90;;;;;;5145675;27;20199;-39
2021/05/21 07:00:23;;;;;;;5.75;4.85;;;10.10;99.90;;;;;;5145766;27;20195;-39
2021/05/21 07:02:53;;;;;;;6.70;4.35;;;10.10;99.90;;;;;;5146783;27;20211;-38
2021/05/21 07:05:24;;;;;;;4.68;4.03;;;10.00;99.90;;;;;;5145160;27;20200;-38
2021/05/21 07:07:54;;;;;;;7.35;4.10;;;10.00;99.90;;;;;;5145264;27;20203;-39
2021/05/21 07:10:26;;;;;;;6.57;4.20;;;9.90;99.90;;;;;;5145897;27;20214;-39
2021/05/21 07:12:56;;;;;;;8.85;4.90;;;9.80;99.90;;;;;;5146440;27;20219;-38
2021/05/21 07:15:27;;;;;;;7.03;5.20;;;9.70;99.90;;;;;;5146805;27;20225;-39
2021/05/21 07:17:57;;;;;;;6.78;4.65;;;9.80;99.90;;;;;;5146525;27;20203;-39
2021/05/21 07:20:28;;;;;;;8.93;6.45;;;9.70;99.90;;;;;;5145657;27;20225;-39
2021/05/21 07:22:58;;;;;;;8.77;5.10;;;9.70;99.90;;;;;;5145866;27;20269;-38
2021/05/21 07:25:30;;;;;;;7.00;4.60;;;9.70;99.90;;;;;;5144464;27;20191;-38
2021/05/21 07:28:01;;;;;;;6.53;4.88;;;9.70;99.90;;;;;;5145399;27;20203;-39
2021/05/21 07:30:33;;;;;;;5.28;4.22;;;9.60;99.90;;;;;;5145243;27;20192;-38
2021/05/21 07:33:03;;;;;;;4.90;4.50;;;9.60;99.90;;;;;;5146010;27;20302;-38
2021/05/21 07:35:34;;;;;;;9.38;5.05;;;9.50;99.90;;;;;;5161881;27;20686;-39
2021/05/21 07:38:05;;;;;;;8.05;4.90;;;9.40;99.90;;;;;;5145853;27;20229;-38
2021/05/21 07:40:36;;;;;;;6.30;5.70;;;9.30;99.90;;;;;;5145034;27;20206;-39
2021/05/21 07:43:07;;;;;;;7.40;5.15;;;9.30;99.90;;;;;;5145220;27;20679;-37
2021/05/21 07:45:37;;;;;;;6.25;5.65;;;9.30;99.90;;;;;;5144072;27;20187;-36
2021/05/21 07:48:09;;;;;;;6.55;4.65;;;9.30;99.90;;;;;;5144550;27;20242;-38
2021/05/21 07:50:40;;;;;;;7.07;4.75;;;9.30;99.90;;;;;;5145344;27;20195;-37
2021/05/21 07:53:10;;;;;;;7.40;5.53;;;9.30;99.90;;;;;;5145645;27;20337;-39
2021/05/21 07:55:44;;;;;;;6.50;4.80;;;9.30;99.90;;;;;;5142150;27;20203;-38
2021/05/21 07:58:14;;;;;;;7.30;5.15;;;9.40;99.90;;;;;;5145213;27;20179;-38
2021/05/21 08:00:45;;;;;;;5.13;4.63;;;9.50;99.90;;;;;;5144573;27;20202;-36
2021/05/21 08:03:17;;;;;;;6.03;4.93;;;9.50;99.90;;;;;;5145539;27;20258;-37
2021/05/21 08:05:48;;;;;;;6.95;5.28;;;9.50;99.90;;;;;;5143758;27;20262;-39
2021/05/21 08:08:23;;;;;;;7.78;5.10;;;9.60;99.90;;;;;;5144548;27;20302;-37
2021/05/21 08:10:56;;;;;;;5.25;4.75;;;9.60;99.90;;;;;;5144687;27;20241;-37
2021/05/21 08:13:27;;;;;;;4.15;3.85;;;9.60;99.90;;;;;;5144538;27;20195;-39
2021/05/21 08:15:57;;;;;;;5.35;4.53;;;9.60;99.90;;;;;;5131943;27;20191;-38
2021/05/21 08:18:28;;;;;;;4.55;4.15;;;9.50;99.90;;;;;;5144825;27;20202;-37
2021/05/21 08:20:58;;;;;;;6.78;5.22;;;9.50;99.90;;;;;;5145235;27;20231;-37
2021/05/21 08:23:29;;;;;;;6.85;6.13;;;9.40;99.90;;;;;;5144519;27;20265;-38
2021/05/21 08:26:00;;;;;;;8.00;5.90;;;9.40;99.90;;;;;;5129940;27;21080;-39
2021/05/21 08:28:31;;;;;;;8.07;5.00;;;9.40;99.90;;;;;;5132509;27;20219;-39
2021/05/21 08:31:03;;;;;;;6.90;5.30;;;9.40;99.90;;;;;;5144921;27;20199;-37
2021/05/21 08:33:38;;;;;;;8.50;5.43;;;9.50;99.90;;;;;;5144050;27;20195;-37
2021/05/21 08:36:09;;;;;;;6.30;4.55;;;9.60;99.90;;;;;;5143714;27;20201;-37
2021/05/21 08:38:43;;;;;;;5.22;4.47;;;9.70;99.90;;;;;;5144449;27;20191;-37
2021/05/21 08:41:18;;;;;;;5.60;5.10;;;9.70;99.90;;;;;;5144649;27;20210;-34
2021/05/21 08:43:49;;;;;;;6.18;4.65;;;9.80;99.90;;;;;;5142868;27;20264;-38
2021/05/21 08:46:21;;;;;;;5.47;4.97;;;9.90;99.90;;;;;;5143698;27;20191;-37
2021/05/21 08:48:52;;;;;;;5.55;4.80;;;9.90;99.90;;;;;;5142995;27;20231;-37
2021/05/21 08:51:22;;;;;;;6.50;5.63;;;10.00;99.90;;;;;;5136650;27;20249;-39
2021/05/21 08:53:55;;;;;;;5.90;5.32;;;10.00;99.90;;;;;;5143769;27;20231;-34
2021/05/21 08:56:27;;;;;;;7.28;5.00;;;10.10;99.90;;;;;;5143683;27;20689;-38
2021/05/21 08:58:58;;;;;;;5.95;5.35;;;10.10;99.90;;;;;;5143427;27;20206;-37
2021/05/21 09:01:29;;;;;;;9.80;6.68;;;10.10;99.90;;;;;;5144150;27;20199;-39
2021/05/21 09:04:19;;;;;;;6.93;6.10;;;10.10;99.90;;;;;;5142311;27;20214;-39
2021/05/21 09:06:50;;;;;;;6.45;5.30;;;10.10;99.90;;;;;;5143885;27;20218;-39
2021/05/21 09:09:21;;;;;;;6.35;5.38;;;10.10;99.90;;;;;;5143286;27;20195;-39
2021/05/21 09:11:55;;;;;;;5.53;5.03;;;10.10;99.90;;;;;;5143491;27;20234;-38
2021/05/21 09:14:25;;;;;;;7.20;5.55;;;10.10;99.90;;;;;;5141759;27;20245;-39
2021/05/21 09:16:58;;;;;;;7.30;5.82;;;10.10;99.90;;;;;;5143934;27;20255;-35
2021/05/21 09:19:29;;;;;;;6.50;5.30;;;10.10;99.90;;;;;;5143141;27;20191;-38
2021/05/21 09:22:03;;;;;;;5.97;5.35;;;10.10;99.90;;;;;;5144126;27;20539;-39
2021/05/21 09:24:37;;;;;;;6.15;5.65;;;10.10;99.90;;;;;;5142723;27;20195;-38
2021/05/21 09:27:14;;;;;;;7.57;5.95;;;10.20;99.90;;;;;;5142037;27;20207;-36
2021/05/21 09:29:46;;;;;;;8.30;6.45;;;10.00;99.90;;;;;;5142215;27;20207;-37
2021/05/21 09:32:28;;;;;;;5.85;5.25;;;10.00;99.90;;;;;;5143808;27;20318;-38
2021/05/21 09:35:16;;;;;;;7.40;6.25;;;10.00;99.90;;;;;;5142786;27;20195;-37
2021/05/21 09:37:48;;;;;;;5.53;5.03;;;10.00;99.90;;;;;;5143201;27;20195;-38
2021/05/21 09:40:20;;;;;;;7.18;6.40;;;9.90;99.90;;;;;;5143292;27;20195;-38
2021/05/21 09:43:02;;;;;;;8.10;5.93;;;9.90;99.90;;;;;;5142715;27;20865;-40
2021/05/21 09:45:36;;;;;;;7.65;6.85;;;9.80;99.90;;;;;;5142519;27;20200;-39
2021/05/21 09:48:29;;;;;;;8.35;6.30;;;9.60;99.90;;;;;;5143304;27;20226;-39
2021/05/21 09:51:02;;;;;;;7.53;6.00;;;9.50;99.90;;;;;;5143112;28;20192;-38
2021/05/21 09:53:34;;;;;;;7.55;5.75;;;9.50;99.90;;;;;;5142801;28;20203;-38
2021/05/21 09:56:06;;;;;;;8.27;5.63;;;9.50;99.90;;;;;;5130231;28;20506;-39
2021/05/21 09:58:51;;;;;;;9.23;6.30;;;9.40;99.90;;;;;;5142458;28;20206;-37
2021/05/21 10:01:24;;;;;;;8.43;6.35;;;9.30;99.90;;;;;;5142571;28;20203;-38
2021/05/21 10:03:57;;;;;;;9.60;6.70;;;9.20;99.90;;;;;;5133034;28;20286;-37
2021/05/21 10:06:29;;;;;;;6.97;6.15;;;9.10;99.90;;;;;;5143310;28;20203;-36
2021/05/21 10:08:59;;;;;;;7.05;6.38;;;9.10;99.90;;;;;;5143499;28;20199;-36
2021/05/21 10:11:32;;;;;;;6.40;5.80;;;9.10;99.90;;;;;;5142464;28;20734;-41
2021/05/21 10:14:03;;;;;;;7.15;5.93;;;9.10;99.90;;;;;;5141657;28;20244;-39
2021/05/21 10:16:34;;;;;;;8.05;6.85;;;9.00;99.90;;;;;;5143187;28;20218;-39
2021/05/21 10:19:07;;;;;;;7.65;6.63;;;8.90;99.90;;;;;;5142751;28;20225;-36
2021/05/21 10:21:38;;;;;;;7.10;6.40;;;8.90;99.90;;;;;;5142608;28;20209;-40
2021/05/21 10:24:13;;;;;;;9.18;6.88;;;8.90;99.90;;;;;;5139863;28;20271;-36
2021/05/21 10:26:45;;;;;;;7.22;6.63;;;8.80;99.90;;;;;;5125129;28;20294;-35
2021/05/21 10:29:22;;;;;;;9.68;7.22;;;8.90;99.90;;;;;;5141471;28;20229;-37
2021/05/21 10:31:53;;;;;;;8.00;6.32;;;8.90;99.90;;;;;;5142323;28;20277;-38
2021/05/21 10:34:24;;;;;;;6.47;5.88;;;8.90;99.90;;;;;;5143021;28;20199;-36
2021/05/21 10:37:15;;;;;;;7.63;5.70;;;8.90;99.90;;;;;;5142618;28;20199;-39
2021/05/21 10:40:05;;;;;;;7.22;5.85;;;9.00;99.90;;;;;;5144346;27;20210;-36
2021/05/21 10:42:40;;;;;;;6.28;5.68;;;9.00;99.90;;;;;;5132850;27;20221;-37
2021/05/21 10:45:19;;;;;;;7.53;6.40;;;9.10;99.90;;;;;;5146114;27;20191;-38
2021/05/21 10:47:58;;;;;;;8.77;5.60;;;9.10;99.90;;;;;;5145893;27;20710;-38
2021/05/21 10:50:35;;;;;;;7.80;6.07;;;9.10;99.90;;;;;;5142783;27;20202;-39
2021/05/21 10:53:07;;;;;;;9.02;6.30;;;9.10;99.90;;;;;;5146908;27;20241;-34
2021/05/21 10:55:49;;;;;;;6.93;6.22;;;9.20;99.90;;;;;;5146609;27;20248;-38
2021/05/21 10:58:29;;;;;;;13.43;6.00;;;9.20;99.90;;;;;;5145891;27;20254;-37
2021/05/21 11:01:19;;;;;;;6.72;5.53;;;9.10;99.90;;;;;;5146597;27;20252;-34
2021/05/21 11:04:10;;;;;;;10.00;6.95;;;9.10;99.90;;;;;;5138918;27;20269;-37
2021/05/21 11:06:51;;;;;;;7.45;6.53;;;9.00;99.90;;;;;;5141266;27;20234;-38
2021/05/21 11:09:26;;;;;;;7.95;6.85;;;8.90;99.90;;;;;;5145140;27;20256;-38
2021/05/21 11:12:08;;;;;;;8.35;7.43;;;8.90;99.90;;;;;;5146883;27;20596;-38
2021/05/21 11:14:40;;;;;;;8.55;7.30;;;8.80;99.90;;;;;;5145613;27;20256;-35
2021/05/21 11:17:29;;;;;;;10.40;8.18;;;8.70;99.90;;;;;;5145908;27;20195;-37
2021/05/21 11:20:00;;;;;;;9.88;7.82;;;8.70;99.90;;;;;;5145923;27;20279;-36
2021/05/21 11:22:33;;;;;;;12.55;7.65;;;8.70;99.90;;;;;;5146745;27;20216;-38
2021/05/21 11:25:05;;;;;;;9.60;7.47;;;8.80;99.90;;;;;;5146411;27;20264;-39
2021/05/21 11:27:37;;;;;;;7.72;6.97;;;8.80;99.90;;;;;;5138070;27;20199;-39
2021/05/21 11:30:09;;;;;;;7.65;6.90;;;8.90;99.90;;;;;;5144470;27;20199;-39
2021/05/21 11:32:41;;;;;;;8.93;7.35;;;8.90;99.90;;;;;;5146140;27;20200;-40
2021/05/21 11:35:13;;;;;;;8.27;6.82;;;8.90;99.90;;;;;;5145159;27;20236;-37
2021/05/21 11:37:44;;;;;;;9.90;6.70;;;8.90;99.90;;;;;;5146318;27;20199;-37
2021/05/21 11:40:15;;;;;;;8.38;7.28;;;9.00;99.90;;;;;;5145913;27;20199;-38
2021/05/21 11:42:48;;;;;;;8.55;6.50;;;9.00;99.90;;;;;;5146092;27;20242;-38
2021/05/21 11:45:18;;;;;;;7.15;6.30;;;9.10;99.90;;;;;;5144610;27;20195;-39
2021/05/21 11:47:50;;;;;;;7.32;6.63;;;9.10;99.90;;;;;;5145649;27;20231;-38
2021/05/21 11:50:30;;;;;;;7.82;6.45;;;9.20;99.90;;;;;;5146678;27;20633;-38
2021/05/21 11:53:11;;;;;;;9.30;7.20;;;9.20;99.90;;;;;;5146267;27;20218;-36
2021/05/21 11:55:45;;;;;;;11.13;6.93;;;9.30;99.90;;;;;;5145855;27;20199;-38
2021/05/21 11:58:27;;;;;;;7.97;6.95;;;9.30;99.90;;;;;;5145216;27;20187;-38
2021/05/21 12:01:01;;;;;;;9.02;7.40;;;9.30;99.90;;;;;;5145482;27;20223;-39
2021/05/21 12:03:38;;;;;;;8.07;7.25;;;9.30;99.90;;;;;;5145310;27;20232;-39
2021/05/21 12:06:09;;;;;;;9.00;7.68;;;9.30;99.90;;;;;;5146022;27;20227;-39
2021/05/21 12:08:40;;;;;;;7.22;6.57;;;9.40;99.90;;;;;;5143914;27;20611;-38
2021/05/21 12:11:11;;;;;;;7.40;6.70;;;9.40;99.90;;;;;;5145196;27;20227;-39
2021/05/21 12:13:45;;;;;;;9.25;7.43;;;9.50;99.90;;;;;;5145240;27;20187;-39
2021/05/21 12:16:18;;;;;;;8.95;7.80;;;9.50;99.90;;;;;;5145583;27;20207;-39
2021/05/21 12:18:50;;;;;;;10.07;6.80;;;9.50;99.90;;;;;;5143800;27;20209;-39
2021/05/21 12:21:25;;;;;;;8.95;6.78;;;9.50;99.90;;;;;;5145569;27;20200;-38
2021/05/21 12:23:56;;;;;;;7.57;6.57;;;9.60;99.90;;;;;;5144798;27;20225;-40
2021/05/21 12:26:28;;;;;;;6.85;6.07;;;9.70;99.90;;;;;;5140317;27;20226;-39
2021/05/21 12:29:00;;;;;;;8.68;7.15;;;9.70;99.90;;;;;;5142019;27;20195;-35
2021/05/21 12:31:32;;;;;;;7.88;6.30;;;9.70;99.90;;;;;;5145236;27;20770;-39
2021/05/21 12:34:05;;;;;;;7.53;6.68;;;9.50;99.90;;;;;;5144829;27;20191;-37
2021/05/21 12:36:36;;;;;;;8.40;6.25;;;9.60;99.90;;;;;;5145134;27;20203;-37
2021/05/21 12:39:08;;;;;;;7.03;6.35;;;9.70;99.90;;;;;;5143775;27;20206;-37
2021/05/21 12:41:39;;;;;;;8.48;6.50;;;9.80;99.90;;;;;;5144745;27;20179;-39
2021/05/21 12:44:12;;;;;;;6.93;6.22;;;9.80;99.90;;;;;;5144370;27;20595;-39
2021/05/21 12:46:51;;;;;;;8.50;6.80;;;9.80;99.90;;;;;;5144286;27;20207;-38
2021/05/21 12:49:27;;;;;;;11.38;6.40;;;9.80;99.90;;;;;;5141750;27;20203;-37
2021/05/21 12:51:58;;;;;;;9.57;6.70;;;9.90;99.90;;;;;;5144512;27;20202;-38
2021/05/21 12:54:31;;;;;;;10.65;7.03;;;9.90;99.90;;;;;;5144257;27;20221;-39
2021/05/21 12:57:06;;;;;;;9.60;6.50;;;9.90;99.90;;;;;;5144317;27;20206;-36
2021/05/21 12:59:39;;;;;;;9.80;6.93;;;9.90;99.90;;;;;;5142394;27;20191;-37
2021/05/21 13:02:15;;;;;;;6.93;6.28;;;9.80;99.90;;;;;;5143455;27;20203;-37
2021/05/21 13:04:58;;;;;;;9.52;6.65;;;9.90;99.90;;;;;;5144072;27;20250;-39
2021/05/21 13:07:29;;;;;;;8.88;6.63;;;9.90;99.90;;;;;;5143812;27;20224;-37
2021/05/21 13:10:03;;;;;;;8.52;6.05;;;10.00;99.90;;;;;;5143213;27;20203;-36
2021/05/21 13:12:37;;;;;;;7.80;6.60;;;10.00;99.90;;;;;;5143747;27;20224;-39
2021/05/21 13:15:12;;;;;;;9.90;7.55;;;10.10;99.90;;;;;;5143376;27;20262;-38
2021/05/21 13:17:44;;;;;;;7.63;6.72;;;10.10;99.90;;;;;;5143576;27;20190;-36